createdAt,value
2022-11-05T00:01:09.109Z,4.25
2022-11-05T00:06:15.280Z,6.23
2022-11-05T00:11:18.964Z,5.63
2022-11-05T00:16:22.515Z,5.57
2022-11-05T00:21:27.722Z,7.82
2022-11-05T00:26:32.718Z,4.22
2022-11-05T00:31:36.305Z,2.93
2022-11-05T00:36:41.503Z,6.65
2022-11-05T00:41:45.273Z,1.80
2022-11-05T00:46:48.794Z,1.52
2022-11-05T00:51:53.961Z,0.80
2022-11-05T00:57:01.954Z,2.53
2022-11-05T01:02:07.980Z,2.22
2022-11-05T01:07:13.196Z,1.23
2022-11-05T01:12:16.745Z,1.27
2022-11-05T01:17:20.291Z,1.58
2022-11-05T01:22:25.581Z,2.58
2022-11-05T01:27:29.084Z,1.52
2022-11-05T01:32:32.646Z,1.02
2022-11-05T01:37:37.870Z,2.05
2022-11-05T01:42:41.533Z,1.00
2022-11-05T01:47:56.270Z,2.25
2022-11-05T01:53:09.303Z,1.73
2022-11-05T01:58:17.180Z,0.90
2022-11-05T02:03:20.876Z,1.40
2022-11-05T02:08:37.700Z,3.45
2022-11-05T02:13:41.755Z,2.17
2022-11-05T02:18:54.765Z,3.95
2022-11-05T02:24:31.998Z,5.05
2022-11-05T02:30:09.038Z,5.88
2022-11-05T02:35:27.712Z,4.30
2022-11-05T02:40:36.981Z,6.60
2022-11-05T02:45:49.447Z,6.53
2022-11-05T02:51:01.364Z,4.05
2022-11-05T02:56:10.108Z,4.35
2022-11-05T03:01:14.178Z,4.05
2022-11-05T03:06:45.260Z,6.28
2022-11-05T03:12:00.273Z,3.90
2022-11-05T03:17:13.414Z,5.70
2022-11-05T03:22:24.290Z,4.63
2022-11-05T03:27:32.134Z,5.60
2022-11-05T03:32:39.336Z,4.75
2022-11-05T03:37:48.051Z,3.83
2022-11-05T03:42:56.281Z,3.15
2022-11-05T03:48:02.541Z,4.38
2022-11-05T03:53:15.138Z,3.53
2022-11-05T03:58:22.861Z,4.07
2022-11-05T04:03:26.422Z,5.97
2022-11-05T04:08:31.594Z,4.70
2022-11-05T04:13:35.365Z,6.30
2022-11-05T04:18:38.961Z,5.78
2022-11-05T04:23:44.174Z,5.30
2022-11-05T04:28:47.740Z,6.47
2022-11-05T04:33:51.309Z,4.68
2022-11-05T04:38:56.497Z,7.65
2022-11-05T04:44:00.112Z,5.00
2022-11-05T04:49:03.661Z,7.03
2022-11-05T04:54:08.869Z,5.50
2022-11-05T04:59:12.421Z,6.57
2022-11-05T05:04:15.959Z,5.18
2022-11-05T05:09:21.130Z,5.05
2022-11-05T05:14:24.673Z,6.60
2022-11-05T05:19:28.539Z,6.25
2022-11-05T05:24:33.751Z,5.53
2022-11-05T05:29:37.337Z,5.00
2022-11-05T05:34:40.896Z,4.65
2022-11-05T05:39:46.223Z,5.45
2022-11-05T05:44:49.846Z,5.80
2022-11-05T05:49:53.386Z,5.45
2022-11-05T05:54:58.538Z,4.55
2022-11-05T06:00:02.104Z,4.43
2022-11-05T06:05:06.231Z,5.18
2022-11-05T06:10:11.817Z,5.30
2022-11-05T06:15:15.504Z,6.18
2022-11-05T06:20:19.316Z,4.88
2022-11-05T06:25:24.887Z,6.15
2022-11-05T06:30:28.563Z,4.60
2022-11-05T06:35:32.864Z,5.80
2022-11-05T06:40:38.044Z,6.13
2022-11-05T06:45:41.603Z,6.40
2022-11-05T06:50:46.417Z,4.85
2022-11-05T06:55:51.604Z,5.07
2022-11-05T07:00:55.195Z,5.23
2022-11-05T07:06:00.473Z,5.75
2022-11-05T07:11:06.277Z,5.30
2022-11-05T07:16:09.992Z,4.78
2022-11-05T07:21:13.535Z,4.78
2022-11-05T07:26:18.726Z,6.85
2022-11-05T07:31:22.337Z,6.57
2022-11-05T07:36:25.995Z,6.50
2022-11-05T07:41:31.221Z,6.63
2022-11-05T07:46:34.754Z,6.03
2022-11-05T07:51:38.302Z,5.47
2022-11-05T07:56:43.456Z,6.95
2022-11-05T08:01:47.200Z,7.05
2022-11-05T08:06:50.828Z,7.32
2022-11-05T08:11:59.907Z,7.15
2022-11-05T08:17:06.318Z,6.10
2022-11-05T08:22:09.907Z,5.43
2022-11-05T08:27:15.134Z,4.82
2022-11-05T08:32:18.694Z,5.93
2022-11-05T08:37:22.941Z,5.25
2022-11-05T08:42:28.160Z,6.22
2022-11-05T08:47:31.680Z,6.30
2022-11-05T08:52:35.252Z,6.57
2022-11-05T08:57:40.412Z,5.88
2022-11-05T09:02:44.115Z,7.13
2022-11-05T09:07:47.738Z,5.28
2022-11-05T09:12:52.891Z,4.53
2022-11-05T09:17:56.926Z,5.65
2022-11-05T09:23:00.646Z,5.50
2022-11-05T09:28:16.730Z,5.38
2022-11-05T09:33:22.517Z,6.30
2022-11-05T09:38:26.065Z,5.60
2022-11-05T09:43:35.573Z,5.55
2022-11-05T09:48:42.109Z,5.85
2022-11-05T09:53:47.125Z,5.70
2022-11-05T09:58:57.980Z,6.65
2022-11-05T10:04:08.145Z,4.90
2022-11-05T10:09:20.031Z,5.88
2022-11-05T10:14:29.311Z,6.00
2022-11-05T10:19:42.214Z,5.35
2022-11-05T10:24:47.549Z,5.05
2022-11-05T10:29:52.881Z,6.73
2022-11-05T10:34:59.657Z,5.93
2022-11-05T10:40:03.314Z,4.07
2022-11-05T10:45:17.649Z,4.13
2022-11-05T10:50:24.310Z,5.93
2022-11-05T10:55:30.042Z,4.65
2022-11-05T11:00:35.409Z,6.00
2022-11-05T11:05:40.837Z,5.07
2022-11-05T11:10:51.390Z,4.77
2022-11-05T11:16:13.703Z,4.43
2022-11-05T11:21:19.587Z,4.32
2022-11-05T11:26:24.583Z,4.38
2022-11-05T11:31:32.132Z,4.30
2022-11-05T11:36:39.989Z,5.68
2022-11-05T11:41:47.014Z,5.40
2022-11-05T11:46:54.313Z,2.97
2022-11-05T11:52:12.621Z,4.55
2022-11-05T11:57:24.223Z,4.72
2022-11-05T12:03:17.684Z,3.50
2022-11-05T12:08:47.050Z,4.15
2022-11-05T12:14:13.819Z,3.38
2022-11-05T12:19:32.226Z,5.25
2022-11-05T12:24:52.732Z,3.40
2022-11-05T12:30:03.801Z,4.85
2022-11-05T12:35:21.377Z,3.08
2022-11-05T12:40:55.317Z,2.47
2022-11-05T12:46:07.249Z,4.32
2022-11-05T12:51:22.575Z,3.67
2022-11-05T12:56:32.603Z,4.38
2022-11-05T13:01:40.487Z,2.92
2022-11-05T13:06:51.622Z,2.90
2022-11-05T13:11:58.538Z,3.28
2022-11-05T13:17:06.189Z,4.10
2022-11-05T13:22:20.913Z,4.20
2022-11-05T13:27:42.665Z,3.75
2022-11-05T13:32:50.858Z,2.42
2022-11-05T13:38:00.185Z,2.95
2022-11-05T13:43:44.531Z,2.60
2022-11-05T13:49:09.657Z,2.83
2022-11-05T13:54:47.921Z,3.35
2022-11-05T14:00:06.389Z,2.90
2022-11-05T14:05:24.519Z,4.90
2022-11-05T14:10:36.308Z,3.53
2022-11-05T14:15:52.788Z,3.08
2022-11-05T14:21:01.314Z,3.42
2022-11-05T14:26:17.209Z,3.10
2022-11-05T14:31:54.529Z,1.90
2022-11-05T14:37:24.019Z,4.57
2022-11-05T14:42:29.609Z,4.50
2022-11-05T14:47:38.009Z,2.50
2022-11-05T14:52:51.149Z,2.22
2022-11-05T14:58:23.932Z,3.30
2022-11-05T15:03:54.693Z,1.48
2022-11-05T15:09:24.557Z,2.22
2022-11-05T15:14:32.570Z,1.40
2022-11-05T15:19:39.289Z,1.70
2022-11-05T15:24:43.941Z,0.40
2022-11-05T15:29:47.541Z,0.20
2022-11-05T15:34:56.823Z,0.20
2022-11-05T15:40:00.396Z,0.45
2022-11-05T15:45:04.000Z,0.40
2022-11-05T15:50:16.678Z,0.45
2022-11-05T15:55:21.676Z,1.50
2022-11-05T16:00:27.155Z,1.33
2022-11-05T16:05:35.301Z,1.20
2022-11-05T16:10:40.198Z,0.20
2022-11-05T16:15:54.813Z,0.40
2022-11-05T16:21:04.873Z,1.17
2022-11-05T16:26:48.030Z,0.35
2022-11-05T16:31:52.188Z,0.22
2022-11-05T16:36:59.979Z,0.15
2022-11-05T16:42:20.598Z,0.10
2022-11-05T16:47:24.911Z,0.10
2022-11-05T16:52:30.530Z,0.03
2022-11-05T16:57:34.211Z,0.43
2022-11-05T17:02:37.920Z,0.15
2022-11-05T17:07:43.202Z,0.13
2022-11-05T17:12:47.419Z,0.10
2022-11-05T17:17:51.753Z,0.20
2022-11-05T17:22:57.731Z,0.00
2022-11-05T17:33:04.292Z,0.00
2022-11-05T17:38:09.978Z,0.38
2022-11-05T17:43:13.857Z,0.25
2022-11-05T17:48:18.544Z,0.70
2022-11-05T17:53:23.825Z,0.13
2022-11-05T17:58:27.366Z,0.10
2022-11-05T18:03:32.391Z,0.10
2022-11-05T18:08:37.545Z,0.00
2022-11-05T18:13:41.101Z,0.30
2022-11-05T18:18:44.659Z,0.00
2022-11-05T18:23:49.859Z,0.10
2022-11-05T18:28:53.411Z,0.47
2022-11-05T18:33:58.843Z,0.22
2022-11-05T18:39:05.276Z,0.38
2022-11-05T18:44:08.881Z,0.30
2022-11-05T18:49:12.427Z,0.90
2022-11-05T18:54:17.707Z,0.65
2022-11-05T18:59:36.670Z,0.55
2022-11-05T19:05:00.350Z,0.47
2022-11-05T19:10:08.689Z,0.63
2022-11-05T19:15:12.538Z,0.47
2022-11-05T19:20:16.212Z,0.10
2022-11-05T19:25:21.465Z,0.50
2022-11-05T19:30:25.102Z,0.77
2022-11-05T19:35:28.640Z,0.80
2022-11-05T19:40:33.853Z,1.67
2022-11-05T19:45:44.693Z,0.20
2022-11-05T19:50:48.919Z,1.08
2022-11-05T19:55:54.128Z,0.88
2022-11-05T20:00:57.678Z,1.15
2022-11-05T20:06:03.698Z,0.30
2022-11-05T20:11:09.184Z,0.28
2022-11-05T20:16:21.074Z,0.73
2022-11-05T20:21:24.619Z,0.28
2022-11-05T20:26:30.664Z,0.30
2022-11-05T20:31:34.201Z,0.22
2022-11-05T20:36:39.275Z,1.60
2022-11-05T20:41:44.485Z,0.30
2022-11-05T20:46:48.030Z,0.20
2022-11-05T20:51:51.610Z,1.10
2022-11-05T20:56:56.821Z,0.95
2022-11-05T21:02:00.474Z,0.52
2022-11-05T21:07:04.192Z,0.10
2022-11-05T21:12:10.720Z,1.20
2022-11-05T21:17:14.371Z,7.63
2022-11-05T21:22:17.993Z,0.28
2022-11-05T21:27:23.202Z,0.13
2022-11-05T21:32:26.736Z,0.52
2022-11-05T21:37:30.267Z,2.65
2022-11-05T21:42:35.472Z,2.15
2022-11-05T21:47:38.983Z,0.10
2022-11-05T21:52:42.513Z,0.32
2022-11-05T21:57:48.016Z,0.00
2022-11-05T22:07:54.566Z,0.00
2022-11-05T22:12:59.716Z,0.00
2022-11-05T22:18:03.322Z,0.43
2022-11-05T22:23:11.109Z,0.00
2022-11-05T22:28:16.613Z,0.00
2022-11-05T22:33:20.207Z,0.10
2022-11-05T22:38:23.755Z,0.00
2022-11-05T22:43:28.927Z,0.00
2022-11-05T22:48:33.014Z,0.00
2022-11-05T22:53:37.419Z,0.70
2022-11-05T22:58:42.801Z,0.10
2022-11-05T23:08:49.833Z,0.00
2022-11-05T23:13:55.251Z,0.00
2022-11-05T23:24:01.568Z,0.00
2022-11-05T23:29:06.760Z,0.17
2022-11-05T23:34:10.304Z,0.00
2022-11-05T23:39:13.875Z,0.32
2022-11-05T23:44:21.680Z,0.10
2022-11-05T23:49:25.262Z,0.22
2022-11-05T23:54:28.849Z,0.25
2022-11-05T23:59:34.065Z,0.65
